createdAt,value
2022-09-12T00:00:36.755Z,77.1
2022-09-12T00:01:36.847Z,76.9
2022-09-12T00:02:36.740Z,77.3
2022-09-12T00:03:36.731Z,77.3
2022-09-12T00:04:36.727Z,77.1
2022-09-12T00:05:36.737Z,77
2022-09-12T00:06:37.361Z,77
2022-09-12T00:07:36.730Z,77.1
2022-09-12T00:08:36.785Z,77
2022-09-12T00:09:36.730Z,76.9
2022-09-12T00:10:36.740Z,77
2022-09-12T00:11:36.741Z,76.7
2022-09-12T00:13:41.302Z,76.4
2022-09-12T00:14:36.741Z,76.5
2022-09-12T00:15:36.737Z,76.5
2022-09-12T00:16:36.774Z,76.4
2022-09-12T00:17:36.735Z,76.3
2022-09-12T00:18:36.736Z,76.5
2022-09-12T00:19:36.744Z,76.8
2022-09-12T00:20:36.737Z,76.7
2022-09-12T00:21:36.737Z,76.8
2022-09-12T00:22:36.736Z,76.7
2022-09-12T00:23:36.735Z,76.7
2022-09-12T00:24:36.738Z,76.7
2022-09-12T00:25:36.737Z,76.9
2022-09-12T00:26:36.744Z,76.7
2022-09-12T00:27:36.740Z,76.8
2022-09-12T00:28:36.741Z,76.6
2022-09-12T00:29:36.741Z,76.8
2022-09-12T00:30:36.731Z,77
2022-09-12T00:31:36.829Z,77
2022-09-12T00:32:36.748Z,76.8
2022-09-12T00:33:36.739Z,76.7
2022-09-12T00:34:36.744Z,76.6
2022-09-12T00:35:36.737Z,76.6
2022-09-12T00:36:36.740Z,76.3
2022-09-12T00:37:36.737Z,76.3
2022-09-12T00:38:36.762Z,76.2
2022-09-12T00:39:36.829Z,76.3
2022-09-12T00:40:36.741Z,76.3
2022-09-12T00:41:36.747Z,76.4
2022-09-12T00:43:36.737Z,76.8
2022-09-12T00:44:36.738Z,77
2022-09-12T00:45:36.783Z,77.2
2022-09-12T00:46:36.754Z,77.3
2022-09-12T00:47:36.793Z,77.4
2022-09-12T00:48:36.745Z,77.1
2022-09-12T00:49:36.748Z,77.5
2022-09-12T00:50:36.747Z,77.8
2022-09-12T00:51:36.745Z,77.7
2022-09-12T00:52:36.742Z,77.6
2022-09-12T00:53:36.738Z,77.4
2022-09-12T00:54:36.740Z,77.3
2022-09-12T00:55:36.744Z,77.3
2022-09-12T00:56:36.750Z,77.3
2022-09-12T00:57:36.747Z,77.3
2022-09-12T00:58:36.753Z,77.2
2022-09-12T00:59:36.789Z,77.4
2022-09-12T01:00:36.756Z,77.1
2022-09-12T01:01:36.888Z,77
2022-09-12T01:02:36.788Z,76.9
2022-09-12T01:03:36.748Z,77.2
2022-09-12T01:04:36.752Z,77.4
2022-09-12T01:05:36.747Z,77.2
2022-09-12T01:06:36.748Z,77
2022-09-12T01:07:39.876Z,76.9
2022-09-12T01:08:36.748Z,76.9
2022-09-12T01:09:36.750Z,77.2
2022-09-12T01:10:36.752Z,77.3
2022-09-12T01:11:36.750Z,77
2022-09-12T01:12:36.752Z,76.8
2022-09-12T01:13:36.749Z,76.7
2022-09-12T01:14:36.753Z,76.7
2022-09-12T01:15:36.749Z,76.7
2022-09-12T01:16:36.998Z,76.8
2022-09-12T01:17:36.757Z,77
2022-09-12T01:18:36.752Z,77.4
2022-09-12T01:19:36.757Z,77.7
2022-09-12T01:20:36.754Z,77.4
2022-09-12T01:21:36.827Z,77.3
2022-09-12T01:22:36.752Z,77.4
2022-09-12T01:23:36.753Z,77.4
2022-09-12T01:24:36.752Z,77.3
2022-09-12T01:25:36.755Z,76.9
2022-09-12T01:26:36.749Z,76.8
2022-09-12T01:27:36.755Z,76.8
2022-09-12T01:28:36.809Z,76.7
2022-09-12T01:29:36.757Z,76.9
2022-09-12T01:30:36.754Z,77.1
2022-09-12T01:31:36.759Z,76.9
2022-09-12T01:32:36.767Z,77
2022-09-12T01:33:36.795Z,76.8
2022-09-12T01:34:36.759Z,76.9
2022-09-12T01:35:36.755Z,77.2
2022-09-12T01:36:36.753Z,77.6
2022-09-12T01:37:36.762Z,77.4
2022-09-12T01:38:36.751Z,77.1
2022-09-12T01:39:36.790Z,77.1
2022-09-12T01:40:36.758Z,77
2022-09-12T01:41:36.751Z,76.9
2022-09-12T01:42:37.351Z,77.1
2022-09-12T01:43:36.767Z,77.1
2022-09-12T01:44:36.758Z,77.2
2022-09-12T01:45:36.766Z,77.2
2022-09-12T01:46:36.755Z,77
2022-09-12T01:47:36.794Z,76.7
2022-09-12T01:48:36.762Z,76.7
2022-09-12T01:49:36.764Z,76.8
2022-09-12T01:50:36.758Z,76.7
2022-09-12T01:51:36.766Z,76.6
2022-09-12T01:53:36.767Z,76.9
2022-09-12T01:54:36.764Z,76.6
2022-09-12T01:55:36.758Z,76.5
2022-09-12T01:56:36.755Z,76.8
2022-09-12T01:57:36.763Z,77
2022-09-12T01:58:36.751Z,77.3
2022-09-12T01:59:36.769Z,77
2022-09-12T02:00:36.766Z,77.3
2022-09-12T02:01:36.757Z,77.5
2022-09-12T02:02:36.764Z,77.2
2022-09-12T02:03:36.759Z,77.1
2022-09-12T02:04:36.786Z,77.2
2022-09-12T02:05:36.769Z,77.3
2022-09-12T02:06:36.792Z,77.5
2022-09-12T02:07:36.764Z,77.6
2022-09-12T02:08:36.757Z,77.4
2022-09-12T02:09:36.804Z,77.4
2022-09-12T02:10:36.770Z,77.4
2022-09-12T02:11:36.761Z,77.1
2022-09-12T02:12:36.760Z,77
2022-09-12T02:13:36.766Z,77.1
2022-09-12T02:14:36.817Z,77.2
2022-09-12T02:15:36.760Z,77.3
2022-09-12T02:16:36.798Z,77.4
2022-09-12T02:17:36.765Z,77.8
2022-09-12T02:18:36.771Z,77.9
2022-09-12T02:19:36.767Z,77.8
2022-09-12T02:20:47.923Z,77.6
2022-09-12T02:21:36.767Z,77.3
2022-09-12T02:22:36.769Z,77.1
2022-09-12T02:23:36.766Z,76.9
2022-09-12T02:24:36.772Z,77.1
2022-09-12T02:25:36.767Z,77.1
2022-09-12T02:26:36.788Z,77.5
2022-09-12T02:27:36.767Z,77.3
2022-09-12T02:28:36.766Z,77.3
2022-09-12T02:29:36.772Z,77.3
2022-09-12T02:30:36.808Z,77.1
2022-09-12T02:31:36.826Z,77.1
2022-09-12T02:32:36.774Z,77.1
2022-09-12T02:33:36.770Z,76.7
2022-09-12T02:34:36.844Z,76.8
2022-09-12T02:35:36.801Z,76.9
2022-09-12T02:36:36.773Z,77.1
2022-09-12T02:37:36.768Z,77.1
2022-09-12T02:38:36.835Z,77.1
2022-09-12T02:39:37.002Z,76.9
2022-09-12T02:40:36.782Z,76.8
2022-09-12T02:41:36.775Z,77
2022-09-12T02:42:36.773Z,77.4
2022-09-12T02:43:36.774Z,77.4
2022-09-12T02:44:36.822Z,77.3
2022-09-12T02:45:36.839Z,77.1
2022-09-12T02:46:36.776Z,77.1
2022-09-12T02:47:36.802Z,77.2
2022-09-12T02:48:36.779Z,77.2
2022-09-12T02:49:36.776Z,77.3
2022-09-12T02:50:36.826Z,77.8
2022-09-12T02:51:36.780Z,77.8
2022-09-12T02:52:36.782Z,77.7
2022-09-12T02:53:36.778Z,77.6
2022-09-12T02:54:36.777Z,77.8
2022-09-12T02:55:36.837Z,77.8
2022-09-12T02:56:36.774Z,77.7
2022-09-12T02:57:36.781Z,77.7
2022-09-12T02:58:36.792Z,77.4
2022-09-12T02:59:36.779Z,76.8
2022-09-12T03:00:36.772Z,77
2022-09-12T03:01:36.852Z,77
2022-09-12T03:02:36.776Z,76.8
2022-09-12T03:03:40.176Z,76.9
2022-09-12T03:04:36.773Z,76.9
2022-09-12T03:05:36.780Z,76.8
2022-09-12T03:06:36.801Z,77
2022-09-12T03:07:36.790Z,77.1
2022-09-12T03:08:36.777Z,77.1
2022-09-12T03:09:36.783Z,77.2
2022-09-12T03:10:36.786Z,77
2022-09-12T03:11:36.779Z,77.2
2022-09-12T03:12:36.783Z,77.6
2022-09-12T03:13:36.785Z,77.5
2022-09-12T03:14:36.786Z,77.2
2022-09-12T03:15:36.776Z,77
2022-09-12T03:16:36.835Z,76.7
2022-09-12T03:17:36.820Z,77
2022-09-12T03:18:36.784Z,77.2
2022-09-12T03:19:36.785Z,77.2
2022-09-12T03:20:36.782Z,77.3
2022-09-12T03:21:36.788Z,77.1
2022-09-12T03:23:36.808Z,77.3
2022-09-12T03:24:36.784Z,77.2
2022-09-12T03:25:36.784Z,77.3
2022-09-12T03:26:36.785Z,77.2
2022-09-12T03:29:36.788Z,77
2022-09-12T03:30:36.803Z,77.1
2022-09-12T03:31:36.780Z,77.1
2022-09-12T03:32:36.786Z,77
2022-09-12T03:33:36.779Z,77
2022-09-12T03:34:36.803Z,77.3
2022-09-12T03:35:36.781Z,77.3
2022-09-12T03:36:36.777Z,77.2
2022-09-12T03:37:36.804Z,77.1
2022-09-12T03:38:36.781Z,77.1
2022-09-12T03:39:36.784Z,77
2022-09-12T03:40:36.794Z,76.8
2022-09-12T03:41:36.784Z,77.1
2022-09-12T03:42:36.785Z,76.9
2022-09-12T03:43:36.786Z,76.9
2022-09-12T03:44:36.794Z,77.3
2022-09-12T03:45:36.870Z,77
2022-09-12T03:46:36.783Z,76.9
2022-09-12T03:47:36.787Z,77.1
2022-09-12T03:48:36.786Z,77.6
2022-09-12T03:49:36.786Z,77.6
2022-09-12T03:50:36.787Z,77.4
2022-09-12T03:51:36.831Z,77.7
2022-09-12T03:52:36.783Z,77.8
2022-09-12T03:53:36.792Z,77.5
2022-09-12T03:54:36.789Z,77.6
2022-09-12T03:55:36.787Z,77.5
2022-09-12T03:56:36.785Z,77.3
2022-09-12T03:57:36.792Z,77.3
2022-09-12T03:58:36.794Z,77.4
2022-09-12T03:59:36.785Z,77.4
2022-09-12T04:00:36.795Z,77.4
2022-09-12T04:01:36.791Z,77.3
2022-09-12T04:02:36.788Z,77.4
2022-09-12T04:03:36.791Z,77.3
2022-09-12T04:04:36.802Z,77.4
2022-09-12T04:05:36.794Z,77.5
2022-09-12T04:06:36.801Z,77.5
2022-09-12T04:07:36.792Z,77.4
2022-09-12T04:08:36.827Z,77.2
2022-09-12T04:09:36.793Z,77.3
2022-09-12T04:10:36.798Z,77.5
2022-09-12T04:11:36.793Z,77.3
2022-09-12T04:12:36.794Z,77.4
2022-09-12T04:13:36.796Z,77.4
2022-09-12T04:14:36.802Z,77.6
2022-09-12T04:15:36.789Z,77.8
2022-09-12T04:16:36.847Z,77.7
2022-09-12T04:17:36.804Z,77.8
2022-09-12T04:18:36.799Z,77.7
2022-09-12T04:19:36.796Z,77.6
2022-09-12T04:20:36.834Z,77.5
2022-09-12T04:21:36.793Z,77.4
2022-09-12T04:22:36.790Z,77.1
2022-09-12T04:23:36.793Z,77.2
2022-09-12T04:24:36.797Z,77.4
2022-09-12T04:25:36.843Z,77.5
2022-09-12T04:26:36.804Z,77.5
2022-09-12T04:27:36.795Z,77.8
2022-09-12T04:28:36.794Z,77.8
2022-09-12T04:29:36.806Z,78
2022-09-12T04:30:36.852Z,77.8
2022-09-12T04:31:36.798Z,77.5
2022-09-12T04:32:36.799Z,77.4
2022-09-12T04:33:36.801Z,77.5
2022-09-12T04:34:36.798Z,77.3
2022-09-12T04:35:36.800Z,77.5
2022-09-12T04:36:37.044Z,77.8
2022-09-12T04:37:36.801Z,77.7
2022-09-12T04:38:36.795Z,77.7
2022-09-12T04:39:36.826Z,77.9
2022-09-12T04:40:36.800Z,78.2
2022-09-12T04:41:36.805Z,77.9
2022-09-12T04:42:36.863Z,77.8
2022-09-12T04:43:36.799Z,77.8
2022-09-12T04:44:36.805Z,77.8
2022-09-12T04:45:36.837Z,77.7
2022-09-12T04:46:36.804Z,77.6
2022-09-12T04:47:36.809Z,77.7
2022-09-12T04:48:36.801Z,77.7
2022-09-12T04:49:36.795Z,77.6
2022-09-12T04:50:36.805Z,78
2022-09-12T04:51:36.798Z,77.9
2022-09-12T04:52:36.801Z,77.7
2022-09-12T04:53:36.799Z,78
2022-09-12T04:54:36.800Z,78
2022-09-12T04:55:36.805Z,77.9
2022-09-12T04:56:36.804Z,78
2022-09-12T04:57:36.805Z,77.8
2022-09-12T04:58:36.806Z,77.7
2022-09-12T05:00:36.803Z,77.5
2022-09-12T05:01:36.878Z,77.6
2022-09-12T05:02:36.842Z,77.5
2022-09-12T05:03:36.805Z,77.4
2022-09-12T05:04:36.849Z,77.6
2022-09-12T05:05:36.807Z,77.2
2022-09-12T05:06:36.814Z,77.2
2022-09-12T05:07:36.801Z,77.3
2022-09-12T05:08:36.805Z,77.5
2022-09-12T05:09:36.804Z,77.7
2022-09-12T05:10:36.828Z,77.5
2022-09-12T05:12:02.777Z,77.9
2022-09-12T05:12:36.817Z,78.1
2022-09-12T05:13:36.800Z,78.3
2022-09-12T05:14:36.801Z,78.5
2022-09-12T05:15:36.815Z,78.6
2022-09-12T05:16:36.852Z,78.6
2022-09-12T05:17:36.811Z,78.7
2022-09-12T05:18:36.922Z,78.7
2022-09-12T05:19:36.811Z,78.4
2022-09-12T05:20:36.814Z,79.7
2022-09-12T05:21:36.853Z,80
2022-09-12T05:22:36.815Z,79.9
2022-09-12T05:23:36.821Z,80
2022-09-12T05:24:36.820Z,80.5
2022-09-12T05:25:36.806Z,80.7
2022-09-12T05:26:36.848Z,80.8
2022-09-12T05:27:36.815Z,80.8
2022-09-12T05:28:36.813Z,80.6
2022-09-12T05:29:36.819Z,80.7
2022-09-12T05:30:36.858Z,80.7
2022-09-12T05:31:36.871Z,80.7
2022-09-12T05:32:36.816Z,80.9
2022-09-12T05:33:36.813Z,80.9
2022-09-12T05:34:36.820Z,80.8
2022-09-12T05:35:36.811Z,80.8
2022-09-12T05:36:36.811Z,80.9
2022-09-12T05:37:36.809Z,81.1
2022-09-12T05:38:37.151Z,81.1
2022-09-12T05:39:36.822Z,81.1
2022-09-12T05:40:36.807Z,81.2
2022-09-12T05:41:36.839Z,81.3
2022-09-12T05:42:36.818Z,81.3
2022-09-12T05:43:36.821Z,81.5
2022-09-12T05:44:36.819Z,81.5
2022-09-12T05:45:36.919Z,81.7
2022-09-12T05:46:36.829Z,82
2022-09-12T05:47:36.821Z,82.1
2022-09-12T05:48:36.823Z,82.1
2022-09-12T05:49:36.815Z,82.2
2022-09-12T05:50:37.590Z,82.2
2022-09-12T05:51:36.816Z,82.3
2022-09-12T05:53:36.812Z,82.5
2022-09-12T05:54:36.813Z,82.7
2022-09-12T05:55:36.817Z,82.8
2022-09-12T05:56:36.811Z,83
2022-09-12T05:57:36.826Z,83.2
2022-09-12T05:58:36.831Z,83.5
2022-09-12T05:59:36.825Z,83.6
2022-09-12T06:00:36.824Z,83.8
2022-09-12T06:01:36.866Z,83.9
2022-09-12T06:02:36.894Z,83.8
2022-09-12T06:03:36.818Z,83.8
2022-09-12T06:04:36.825Z,83.8
2022-09-12T06:05:36.820Z,84
2022-09-12T06:06:36.827Z,84
2022-09-12T06:07:36.825Z,84.2
2022-09-12T06:08:36.823Z,84.4
2022-09-12T06:09:36.828Z,84.4
2022-09-12T06:10:36.822Z,84.5
2022-09-12T06:11:36.828Z,84.6
2022-09-12T06:12:36.847Z,84.8
2022-09-12T06:13:36.821Z,84.9
2022-09-12T06:14:36.853Z,84.7
2022-09-12T06:15:36.816Z,84.8
2022-09-12T06:16:36.868Z,84.9
2022-09-12T06:17:36.816Z,85.2
2022-09-12T06:18:36.825Z,85.2
2022-09-12T06:19:36.815Z,85.3
2022-09-12T06:20:36.820Z,85.2
2022-09-12T06:21:36.832Z,85.2
2022-09-12T06:22:36.828Z,85.1
2022-09-12T06:23:36.823Z,85.2
2022-09-12T06:24:36.820Z,85.2
2022-09-12T06:25:36.829Z,85.3
2022-09-12T06:26:36.821Z,85.4
2022-09-12T06:28:36.835Z,85.8
2022-09-12T06:29:36.821Z,86
2022-09-12T06:30:36.858Z,85.9
2022-09-12T06:31:36.871Z,86.1
2022-09-12T06:32:36.823Z,86.1
2022-09-12T06:33:36.826Z,86.2
2022-09-12T06:34:36.825Z,86.2
2022-09-12T06:35:36.820Z,86.2
2022-09-12T06:36:36.833Z,86.4
2022-09-12T06:37:36.828Z,86.4
2022-09-12T06:39:36.857Z,86.5
2022-09-12T06:40:36.824Z,86.3
2022-09-12T06:41:39.386Z,86.2
2022-09-12T06:42:36.832Z,86.1
2022-09-12T06:43:37.073Z,86.1
2022-09-12T06:44:36.835Z,86.1
2022-09-12T06:45:36.855Z,86.2
2022-09-12T06:46:36.836Z,86.2
2022-09-12T06:47:36.846Z,86.2
2022-09-12T06:48:41.628Z,86.5
2022-09-12T06:49:36.826Z,86.4
2022-09-12T06:50:36.829Z,86.4
2022-09-12T06:51:36.837Z,86
2022-09-12T06:52:36.834Z,85.8
2022-09-12T06:54:36.824Z,85.6
2022-09-12T06:55:36.897Z,85.5
2022-09-12T06:56:36.843Z,85.6
2022-09-12T06:57:36.830Z,85.6
2022-09-12T06:58:36.838Z,85.5
2022-09-12T06:59:36.833Z,85.6
2022-09-12T07:00:36.837Z,85.6
2022-09-12T07:01:36.859Z,86
2022-09-12T07:02:36.894Z,85.8
2022-09-12T07:03:36.833Z,85.7
2022-09-12T07:04:36.831Z,85.7
2022-09-12T07:05:36.836Z,85.8
2022-09-12T07:06:36.833Z,85.8
2022-09-12T07:07:36.896Z,85.7
2022-09-12T07:08:36.844Z,85.4
2022-09-12T07:09:36.829Z,84.9
2022-09-12T07:10:36.836Z,85.6
2022-09-12T07:11:36.858Z,85.5
2022-09-12T07:12:36.844Z,85.3
2022-09-12T07:13:36.846Z,85.3
2022-09-12T07:14:36.869Z,85.4
2022-09-12T07:15:36.841Z,85.8
2022-09-12T07:16:37.000Z,85.8
2022-09-12T07:17:36.837Z,85.9
2022-09-12T07:18:36.841Z,86
2022-09-12T07:19:36.840Z,86
2022-09-12T07:20:36.839Z,85.8
2022-09-12T07:21:36.850Z,84.6
2022-09-12T07:22:36.839Z,84.3
2022-09-12T07:23:36.841Z,84.2
2022-09-12T07:24:36.840Z,84
2022-09-12T07:25:36.854Z,84
2022-09-12T07:26:36.839Z,84
2022-09-12T07:27:36.841Z,84.2
2022-09-12T07:28:36.839Z,84.8
2022-09-12T07:29:38.018Z,84.8
2022-09-12T07:30:36.929Z,85.1
2022-09-12T07:31:36.853Z,85.1
2022-09-12T07:32:36.846Z,85.3
2022-09-12T07:33:36.855Z,85.3
2022-09-12T07:34:36.875Z,85.5
2022-09-12T07:35:36.838Z,85.6
2022-09-12T07:36:36.875Z,85
2022-09-12T07:37:36.855Z,84.6
2022-09-12T07:39:36.852Z,83.7
2022-09-12T07:40:36.847Z,83.5
2022-09-12T07:41:36.893Z,83.5
2022-09-12T07:42:36.851Z,83.4
2022-09-12T07:43:36.858Z,83.5
2022-09-12T07:44:36.846Z,84.1
2022-09-12T07:45:36.930Z,85.3
2022-09-12T07:46:36.852Z,85.7
2022-09-12T07:47:36.846Z,85.1
2022-09-12T07:48:36.854Z,85.3
2022-09-12T07:49:36.854Z,85.3
2022-09-12T07:50:36.844Z,85.4
2022-09-12T07:51:36.852Z,85.5
2022-09-12T07:52:36.849Z,85.5
2022-09-12T07:53:36.857Z,85.1
2022-09-12T07:54:36.845Z,85.1
2022-09-12T07:55:36.852Z,85
2022-09-12T07:56:39.121Z,84.3
2022-09-12T07:57:36.850Z,83.5
2022-09-12T07:58:36.849Z,82.9
2022-09-12T07:59:52.030Z,82.8
2022-09-12T08:00:36.855Z,82.4
2022-09-12T08:01:36.972Z,82.1
2022-09-12T08:02:36.877Z,83.3
2022-09-12T08:03:36.853Z,83.1
2022-09-12T08:04:36.852Z,83.2
2022-09-12T08:05:36.855Z,84.4
2022-09-12T08:06:36.860Z,85.7
2022-09-12T08:07:36.859Z,86
2022-09-12T08:08:36.894Z,85.4
2022-09-12T08:09:36.862Z,85.6
2022-09-12T08:10:36.858Z,86.1
2022-09-12T08:11:36.859Z,85.9
2022-09-12T08:12:36.864Z,85.7
2022-09-12T08:13:36.912Z,86.2
2022-09-12T08:14:36.860Z,87.4
2022-09-12T08:15:36.873Z,88.1
2022-09-12T08:16:36.882Z,88.6
2022-09-12T08:17:36.861Z,88.7
2022-09-12T08:18:36.856Z,88.7
2022-09-12T08:19:36.858Z,88.7
2022-09-12T08:20:36.859Z,88.9
2022-09-12T08:21:36.861Z,88.4
2022-09-12T08:22:36.856Z,88.7
2022-09-12T08:23:36.862Z,88.8
2022-09-12T08:24:36.858Z,88.7
2022-09-12T08:25:36.861Z,88.4
2022-09-12T08:26:36.858Z,88.2
2022-09-12T08:27:36.857Z,88
2022-09-12T08:28:36.863Z,87.9
2022-09-12T08:29:36.862Z,87.3
2022-09-12T08:30:36.950Z,86.4
2022-09-12T08:31:36.868Z,82.9
2022-09-12T08:32:36.861Z,80.3
2022-09-12T08:33:36.870Z,79.3
2022-09-12T08:34:36.864Z,80.4
2022-09-12T08:35:36.863Z,80.5
2022-09-12T08:36:36.867Z,79.4
2022-09-12T08:37:36.862Z,79.2
2022-09-12T08:38:36.864Z,78.2
2022-09-12T08:39:36.869Z,78.2
2022-09-12T08:40:36.888Z,80.7
2022-09-12T08:41:36.864Z,81.2
2022-09-12T08:42:36.870Z,82.1
2022-09-12T08:43:36.865Z,81.9
2022-09-12T08:44:36.867Z,81.6
2022-09-12T08:45:36.962Z,81.3
2022-09-12T08:46:36.866Z,80.9
2022-09-12T08:47:36.942Z,80.8
2022-09-12T08:48:36.874Z,80.7
2022-09-12T08:49:36.865Z,80.8
2022-09-12T08:50:36.872Z,80.7
2022-09-12T08:51:36.867Z,80.6
2022-09-12T08:52:36.872Z,80.7
2022-09-12T08:53:36.870Z,80.8
2022-09-12T08:54:36.870Z,81
2022-09-12T08:55:36.867Z,81.5
2022-09-12T08:56:36.878Z,81.1
2022-09-12T08:57:36.878Z,80.9
2022-09-12T08:58:36.873Z,80.1
2022-09-12T08:59:36.917Z,78.2
2022-09-12T09:00:36.877Z,78.2
2022-09-12T09:01:36.951Z,77.9
2022-09-12T09:02:36.925Z,77.9
2022-09-12T09:03:36.871Z,78.4
2022-09-12T09:04:36.866Z,77.7
2022-09-12T09:05:36.883Z,77.9
2022-09-12T09:06:36.874Z,76.5
2022-09-12T09:07:36.888Z,76.4
2022-09-12T09:08:36.885Z,76.5
2022-09-12T09:09:36.868Z,75.2
2022-09-12T09:10:36.878Z,73.6
2022-09-12T09:11:36.874Z,73.3
2022-09-12T09:12:36.880Z,73.8
2022-09-12T09:13:36.875Z,73.6
2022-09-12T09:14:36.879Z,73.9
2022-09-12T09:15:36.953Z,73.8
2022-09-12T09:16:36.880Z,74.8
2022-09-12T09:17:36.878Z,76.2
2022-09-12T09:18:36.901Z,74.7
2022-09-12T09:19:36.880Z,73.8
2022-09-12T09:20:36.885Z,70.3
2022-09-12T09:21:36.945Z,70.4
2022-09-12T09:22:36.890Z,70.9
2022-09-12T09:23:36.877Z,70.5
2022-09-12T09:24:36.879Z,70.5
2022-09-12T09:25:36.913Z,69.4
2022-09-12T09:26:36.884Z,69.3
2022-09-12T09:27:40.777Z,70.1
2022-09-12T09:28:36.887Z,70.3
2022-09-12T09:29:36.889Z,69
2022-09-12T09:30:36.965Z,68.6
2022-09-12T09:31:36.882Z,68.9
2022-09-12T09:32:36.882Z,69.3
2022-09-12T09:33:36.965Z,68.3
2022-09-12T09:34:36.888Z,68.2
2022-09-12T09:35:36.882Z,67.4
2022-09-12T09:36:36.890Z,66.9
2022-09-12T09:37:36.903Z,66.2
2022-09-12T09:38:36.889Z,66.7
2022-09-12T09:39:36.885Z,66.7
2022-09-12T09:40:36.890Z,66
2022-09-12T09:41:36.884Z,68.2
2022-09-12T09:42:36.885Z,68.4
2022-09-12T09:43:36.891Z,66.7
2022-09-12T09:44:36.887Z,68.1
2022-09-12T09:45:36.948Z,65.9
2022-09-12T09:46:36.970Z,67.4
2022-09-12T09:47:36.889Z,66.9
2022-09-12T09:48:36.933Z,66.6
2022-09-12T09:49:36.918Z,65.4
2022-09-12T09:50:36.884Z,64.4
2022-09-12T09:51:36.887Z,64.4
2022-09-12T09:52:36.892Z,64.7
2022-09-12T09:53:36.896Z,63.8
2022-09-12T09:54:36.887Z,64.2
2022-09-12T09:55:36.892Z,64.1
2022-09-12T09:56:36.889Z,63.3
2022-09-12T09:57:36.913Z,61.4
2022-09-12T09:58:36.891Z,61.6
2022-09-12T09:59:36.893Z,62.2
2022-09-12T10:00:36.896Z,62.7
2022-09-12T10:01:36.967Z,62.9
2022-09-12T10:02:37.027Z,62.4
2022-09-12T10:03:36.897Z,60.7
2022-09-12T10:04:40.676Z,60.3
2022-09-12T10:05:36.900Z,59.9
2022-09-12T10:06:36.896Z,60.3
2022-09-12T10:07:36.909Z,59.1
2022-09-12T10:08:36.901Z,58.1
2022-09-12T10:09:36.892Z,57.9
2022-09-12T10:10:36.911Z,57.3
2022-09-12T10:11:36.898Z,57.2
2022-09-12T10:12:36.899Z,57.7
2022-09-12T10:13:36.896Z,57.8
2022-09-12T10:14:36.913Z,57.7
2022-09-12T10:15:36.931Z,57.4
2022-09-12T10:16:36.907Z,57
2022-09-12T10:17:36.904Z,55.8
2022-09-12T10:18:36.939Z,55.6
2022-09-12T10:19:36.907Z,56.1
2022-09-12T10:20:36.926Z,55.7
2022-09-12T10:21:38.625Z,56.7
2022-09-12T10:22:36.899Z,57.1
2022-09-12T10:23:36.904Z,58.3
2022-09-12T10:24:36.899Z,56.7
2022-09-12T10:25:36.896Z,57
2022-09-12T10:26:36.913Z,54.9
2022-09-12T10:27:36.905Z,55
2022-09-12T10:28:36.905Z,55.5
2022-09-12T10:29:36.903Z,55.6
2022-09-12T10:30:36.974Z,53.4
2022-09-12T10:31:36.904Z,52.4
2022-09-12T10:32:36.911Z,53.2
2022-09-12T10:33:36.955Z,54.1
2022-09-12T10:34:36.909Z,55.1
2022-09-12T10:35:36.909Z,53.6
2022-09-12T10:36:36.910Z,53
2022-09-12T10:37:36.910Z,53.5
2022-09-12T10:38:36.906Z,52
2022-09-12T10:39:36.919Z,50.9
2022-09-12T10:40:36.905Z,50.2
2022-09-12T10:41:36.906Z,50.7
2022-09-12T10:42:36.903Z,50.9
2022-09-12T10:43:36.908Z,51.5
2022-09-12T10:44:36.915Z,50.1
2022-09-12T10:45:36.934Z,51.9
2022-09-12T10:46:36.912Z,53
2022-09-12T10:47:36.975Z,53.5
2022-09-12T10:48:36.917Z,51.9
2022-09-12T10:49:36.918Z,51
2022-09-12T10:50:36.906Z,52.5
2022-09-12T10:51:36.937Z,51
2022-09-12T10:52:36.915Z,53.2
2022-09-12T10:53:36.907Z,50.9
2022-09-12T10:54:36.999Z,50.7
2022-09-12T10:55:36.910Z,51.7
2022-09-12T10:56:36.915Z,49.3
2022-09-12T10:57:36.914Z,48.8
2022-09-12T10:58:36.918Z,49
2022-09-12T10:59:36.913Z,50
2022-09-12T11:00:36.917Z,48.5
2022-09-12T11:01:37.030Z,50.2
2022-09-12T11:02:36.962Z,50.4
2022-09-12T11:03:36.923Z,49.4
2022-09-12T11:04:36.922Z,47.3
2022-09-12T11:05:36.922Z,48.2
2022-09-12T11:06:36.915Z,47.5
2022-09-12T11:07:36.929Z,46.6
2022-09-12T11:08:36.913Z,46.6
2022-09-12T11:09:36.915Z,47.2
2022-09-12T11:10:40.465Z,46.7
2022-09-12T11:11:36.918Z,46.6
2022-09-12T11:12:36.924Z,46.3
2022-09-12T11:13:36.969Z,46.5
2022-09-12T11:14:36.932Z,46.5
2022-09-12T11:15:36.989Z,45.7
2022-09-12T11:16:36.926Z,46
2022-09-12T11:17:36.925Z,45.9
2022-09-12T11:18:36.920Z,45.8
2022-09-12T11:19:36.924Z,46.3
2022-09-12T11:20:36.929Z,45
2022-09-12T11:21:36.925Z,45.1
2022-09-12T11:22:36.969Z,45.3
2022-09-12T11:23:36.933Z,45.7
2022-09-12T11:24:36.930Z,45.3
2022-09-12T11:25:36.980Z,44.8
2022-09-12T11:26:36.924Z,45.8
2022-09-12T11:27:36.932Z,44.8
2022-09-12T11:28:36.922Z,44.7
2022-09-12T11:29:36.924Z,44.8
2022-09-12T11:30:36.970Z,45.7
2022-09-12T11:31:36.926Z,45.7
2022-09-12T11:32:36.989Z,45.9
2022-09-12T11:33:42.240Z,45.8
2022-09-12T11:34:36.946Z,46.3
2022-09-12T11:35:36.941Z,45.7
2022-09-12T11:36:36.938Z,44
2022-09-12T11:37:36.936Z,45
2022-09-12T11:38:36.936Z,43.7
2022-09-12T11:39:36.935Z,43.2
2022-09-12T11:40:36.936Z,43.4
2022-09-12T11:41:36.937Z,42.4
2022-09-12T11:44:40.159Z,44
2022-09-12T11:45:36.935Z,42.1
2022-09-12T11:46:36.937Z,42.5
2022-09-12T11:48:36.937Z,42
2022-09-12T11:49:36.935Z,42.8
2022-09-12T11:50:36.941Z,42.1
2022-09-12T11:51:36.979Z,41.2
2022-09-12T11:52:36.943Z,41.9
2022-09-12T11:54:36.952Z,41.8
2022-09-12T11:55:36.941Z,41.2
2022-09-12T11:56:37.001Z,43
2022-09-12T11:57:36.941Z,43.1
2022-09-12T11:58:36.951Z,41.5
2022-09-12T11:59:36.950Z,41.4
2022-09-12T12:00:36.947Z,41.5
2022-09-12T12:01:42.013Z,41.6
2022-09-12T12:02:37.044Z,41.6
2022-09-12T12:03:37.080Z,42.1
2022-09-12T12:04:36.944Z,41.5
2022-09-12T12:05:36.937Z,41
2022-09-12T12:06:36.946Z,40.8
2022-09-12T12:07:36.948Z,40.8
2022-09-12T12:08:36.946Z,41.5
2022-09-12T12:09:36.973Z,42.7
2022-09-12T12:10:36.961Z,40.5
2022-09-12T12:11:36.956Z,39
2022-09-12T12:12:36.952Z,40
2022-09-12T12:13:36.945Z,42
2022-09-12T12:14:36.943Z,44.9
2022-09-12T12:15:37.000Z,41.4
2022-09-12T12:16:36.945Z,40.7
2022-09-12T12:17:36.960Z,39.7
2022-09-12T12:18:36.961Z,40.5
2022-09-12T12:19:36.958Z,41.1
2022-09-12T12:20:36.946Z,39.7
2022-09-12T12:21:36.951Z,39.9
2022-09-12T12:22:36.990Z,40.9
2022-09-12T12:23:36.956Z,40
2022-09-12T12:24:36.952Z,39.3
2022-09-12T12:25:36.961Z,39.8
2022-09-12T12:26:36.955Z,39.9
2022-09-12T12:27:36.959Z,40.3
2022-09-12T12:28:36.952Z,40.4
2022-09-12T12:29:41.563Z,40.8
2022-09-12T12:30:36.953Z,40.9
2022-09-12T12:31:36.952Z,39
2022-09-12T12:32:36.957Z,39.9
2022-09-12T12:33:36.953Z,39.4
2022-09-12T12:34:36.951Z,39.7
2022-09-12T12:35:36.960Z,38.8
2022-09-12T12:36:36.953Z,39.3
2022-09-12T12:37:36.964Z,40.5
2022-09-12T12:38:36.964Z,41.7
2022-09-12T12:39:36.962Z,38.8
2022-09-12T12:40:36.980Z,39.6
2022-09-12T12:41:37.015Z,40.3
2022-09-12T12:42:36.965Z,39.5
2022-09-12T12:43:36.963Z,39.6
2022-09-12T12:44:36.961Z,39.1
2022-09-12T12:46:37.022Z,39.4
2022-09-12T12:47:36.963Z,39.8
2022-09-12T12:48:37.015Z,38.9
2022-09-12T12:49:36.975Z,39.3
2022-09-12T12:50:36.973Z,37.8
2022-09-12T12:51:36.962Z,38.8
2022-09-12T12:52:36.976Z,40.2
2022-09-12T12:53:36.971Z,38.7
2022-09-12T12:54:36.971Z,39.6
2022-09-12T12:55:36.969Z,39
2022-09-12T12:56:36.965Z,39.1
2022-09-12T12:57:36.968Z,38.4
2022-09-12T12:58:36.984Z,38.5
2022-09-12T12:59:36.971Z,38.5
2022-09-12T13:00:36.973Z,38.1
2022-09-12T13:01:37.039Z,39.6
2022-09-12T13:02:37.087Z,40.4
2022-09-12T13:03:36.984Z,39.8
2022-09-12T13:04:36.968Z,39.1
2022-09-12T13:05:36.972Z,39
2022-09-12T13:07:36.978Z,39.5
2022-09-12T13:08:36.975Z,39.8
2022-09-12T13:09:36.971Z,38.4
2022-09-12T13:10:36.974Z,38.7
2022-09-12T13:11:36.990Z,38.8
2022-09-12T13:12:36.974Z,39.1
2022-09-12T13:13:36.982Z,38.1
2022-09-12T13:14:37.012Z,40.4
2022-09-12T13:15:37.080Z,39.8
2022-09-12T13:16:36.977Z,38.6
2022-09-12T13:17:36.996Z,38.2
2022-09-12T13:18:36.977Z,38.3
2022-09-12T13:19:36.978Z,38.5
2022-09-12T13:20:36.991Z,38.9
2022-09-12T13:21:36.979Z,39.4
2022-09-12T13:22:36.976Z,36.9
2022-09-12T13:23:36.995Z,37
2022-09-12T13:24:36.986Z,37.4
2022-09-12T13:25:36.994Z,37.5
2022-09-12T13:26:37.021Z,37.8
2022-09-12T13:29:36.985Z,38.4
2022-09-12T13:32:36.988Z,38.7
2022-09-12T13:35:36.988Z,37.5
2022-09-12T13:37:36.986Z,37.2
2022-09-12T13:39:36.995Z,36.1
2022-09-12T13:40:36.985Z,37.2
2022-09-12T13:41:36.985Z,37.4
2022-09-12T13:42:36.989Z,37.6
2022-09-12T13:44:51.168Z,37.3
2022-09-12T13:45:37.061Z,37
2022-09-12T13:48:37.036Z,37.8
2022-09-12T13:49:36.998Z,38.3
2022-09-12T13:50:36.997Z,37.5
2022-09-12T13:51:36.997Z,38
2022-09-12T13:52:36.996Z,37.3
2022-09-12T13:53:36.996Z,37